メインページ
METAR-TAF:

METAR-TAF

空港 :

Golden, ブリティッシュコロンビア州, カナダ

緯度: 51-18N, 経度: 116-59W, 海抜: 785m

現時点の気象観測

当レポートは6時間43分前の00:00(UTC)に作成
無風
気温 -3°C
湿度 93%
気圧 1011 hPa
視程: 24.1km
高度1500ftの雲はほとんどない
高度3000ftの雲は散在している
高度8300ftの千切れ雲あり

METAR: CYGE 150000Z 00000KT 15SM FEW015 SCT030 BKN083 M03/M04 A2985 RMK SC1SC2AC4 LAST STFD OBS/NEXT151400Z SLP150

時間: 23:43 (06:43 UTC)


TAF: 見つかりません

4,000以上の空港の気象観測と天気予報(METAR報とTAF報)

利用可能な観測所は地図上に黄色い丸と赤い丸で示す。

丸の上にカーソルを重ねると観測所名を参照できる。

次にクリックすると気象観測と天気予報を参照できる。

マップの切り替え:黒色「×」印の緑ボタンをクリックして拡大、「-」印の緑ボタンをクリックして縮小、緑色の三角印をクリックして隣りの地図に切り替え


METAR-TAF: